sensor_id;sensor_type;location;lat;lon;timestamp;pressure;altitude;pressure_sealevel;temperature;humidity
1926;BME280;964;42.606;23.588;2023-02-14T00:01:17;95909.31;;;18.56;25.29
1926;BME280;964;42.606;23.588;2023-02-14T00:03:44;95924.91;;;18.80;24.33
1926;BME280;964;42.606;23.588;2023-02-14T00:06:12;95907.13;;;19.05;24.44
1926;BME280;964;42.606;23.588;2023-02-14T00:08:39;95906.31;;;18.98;24.10
1926;BME280;964;42.606;23.588;2023-02-14T00:11:08;95914.59;;;18.82;24.41
1926;BME280;964;42.606;23.588;2023-02-14T00:13:36;95906.25;;;18.94;25.04
1926;BME280;964;42.606;23.588;2023-02-14T00:16:03;95906.47;;;19.16;24.61
1926;BME280;964;42.606;23.588;2023-02-14T00:18:29;95904.88;;;19.48;23.87
1926;BME280;964;42.606;23.588;2023-02-14T00:21:09;95913.13;;;19.29;23.99
1926;BME280;964;42.606;23.588;2023-02-14T00:23:36;95909.97;;;18.79;24.15
1926;BME280;964;42.606;23.588;2023-02-14T00:26:03;95918.09;;;18.86;24.19
1926;BME280;964;42.606;23.588;2023-02-14T00:28:30;95899.81;;;19.02;24.03
1926;BME280;964;42.606;23.588;2023-02-14T00:30:59;95901.31;;;18.96;24.80
1926;BME280;964;42.606;23.588;2023-02-14T00:33:27;95905.38;;;19.24;24.67
1926;BME280;964;42.606;23.588;2023-02-14T00:35:53;95890.75;;;19.18;24.05
1926;BME280;964;42.606;23.588;2023-02-14T00:38:20;95886.81;;;19.04;25.13
1926;BME280;964;42.606;23.588;2023-02-14T00:40:46;95896.72;;;19.41;24.53
1926;BME280;964;42.606;23.588;2023-02-14T00:43:13;95885.75;;;19.64;23.75
1926;BME280;964;42.606;23.588;2023-02-14T00:45:40;95890.78;;;19.65;24.14
1926;BME280;964;42.606;23.588;2023-02-14T00:48:08;95891.59;;;19.25;24.41
1926;BME280;964;42.606;23.588;2023-02-14T00:50:35;95882.69;;;19.62;24.89
1926;BME280;964;42.606;23.588;2023-02-14T00:53:01;95877.75;;;19.67;24.90
1926;BME280;964;42.606;23.588;2023-02-14T00:55:28;95872.78;;;19.76;24.47
1926;BME280;964;42.606;23.588;2023-02-14T00:57:55;95871.38;;;20.00;24.41
1926;BME280;964;42.606;23.588;2023-02-14T01:00:22;95867.78;;;20.47;24.24
1926;BME280;964;42.606;23.588;2023-02-14T01:02:48;95860.09;;;20.49;23.94
1926;BME280;964;42.606;23.588;2023-02-14T01:05:16;95863.09;;;20.37;24.26
1926;BME280;964;42.606;23.588;2023-02-14T01:07:43;95865.31;;;20.14;24.14
1926;BME280;964;42.606;23.588;2023-02-14T01:10:10;95858.94;;;20.46;24.33
1926;BME280;964;42.606;23.588;2023-02-14T01:12:37;95863.81;;;20.27;24.14
1926;BME280;964;42.606;23.588;2023-02-14T01:15:04;95865.41;;;20.28;24.33
1926;BME280;964;42.606;23.588;2023-02-14T01:17:31;95866.31;;;20.78;23.80
1926;BME280;964;42.606;23.588;2023-02-14T01:19:58;95857.91;;;21.11;23.38
1926;BME280;964;42.606;23.588;2023-02-14T01:22:26;95860.56;;;20.86;23.51
1926;BME280;964;42.606;23.588;2023-02-14T01:24:52;95860.91;;;20.67;24.09
1926;BME280;964;42.606;23.588;2023-02-14T01:27:19;95846.69;;;20.84;23.80
1926;BME280;964;42.606;23.588;2023-02-14T01:29:46;95860.72;;;20.18;24.34
1926;BME280;964;42.606;23.588;2023-02-14T01:32:12;95850.16;;;19.84;24.07
1926;BME280;964;42.606;23.588;2023-02-14T01:34:39;95847.44;;;19.77;24.79
1926;BME280;964;42.606;23.588;2023-02-14T01:37:06;95846.38;;;19.96;24.30
1926;BME280;964;42.606;23.588;2023-02-14T01:39:34;95841.00;;;19.38;25.27
1926;BME280;964;42.606;23.588;2023-02-14T01:42:00;95838.75;;;20.08;24.79
1926;BME280;964;42.606;23.588;2023-02-14T01:44:53;95839.69;;;19.65;24.59
1926;BME280;964;42.606;23.588;2023-02-14T01:47:20;95821.31;;;19.20;25.51
1926;BME280;964;42.606;23.588;2023-02-14T01:49:50;95816.25;;;19.15;24.75
1926;BME280;964;42.606;23.588;2023-02-14T01:52:22;95821.03;;;18.91;25.70
1926;BME280;964;42.606;23.588;2023-02-14T01:54:53;95811.00;;;19.29;25.36
1926;BME280;964;42.606;23.588;2023-02-14T01:57:23;95810.97;;;19.25;24.78
1926;BME280;964;42.606;23.588;2023-02-14T01:59:56;95810.66;;;18.86;26.09
1926;BME280;964;42.606;23.588;2023-02-14T02:02:44;95812.69;;;18.56;26.79
1926;BME280;964;42.606;23.588;2023-02-14T02:05:12;95803.03;;;18.92;25.68
1926;BME280;964;42.606;23.588;2023-02-14T02:07:40;95805.31;;;18.49;27.07
1926;BME280;964;42.606;23.588;2023-02-14T02:10:09;95807.06;;;19.16;26.14
1926;BME280;964;42.606;23.588;2023-02-14T02:12:36;95812.97;;;19.39;25.88
1926;BME280;964;42.606;23.588;2023-02-14T02:15:04;95810.09;;;19.65;26.22
1926;BME280;964;42.606;23.588;2023-02-14T02:17:39;95816.00;;;19.92;25.99
1926;BME280;964;42.606;23.588;2023-02-14T02:20:41;95816.00;;;19.88;25.21
1926;BME280;964;42.606;23.588;2023-02-14T02:23:45;95813.13;;;19.60;25.89
1926;BME280;964;42.606;23.588;2023-02-14T02:26:50;95798.00;;;19.38;25.32
1926;BME280;964;42.606;23.588;2023-02-14T02:33:15;95780.72;;;20.15;24.40
1926;BME280;964;42.606;23.588;2023-02-14T02:36:04;95778.63;;;19.69;24.63
1926;BME280;964;42.606;23.588;2023-02-14T02:38:47;95781.72;;;19.82;24.53
1926;BME280;964;42.606;23.588;2023-02-14T02:41:29;95782.25;;;20.16;24.13
1926;BME280;964;42.606;23.588;2023-02-14T02:44:06;95776.63;;;20.52;24.01
1926;BME280;964;42.606;23.588;2023-02-14T02:46:39;95769.59;;;20.27;23.99
1926;BME280;964;42.606;23.588;2023-02-14T02:49:23;95761.94;;;20.25;24.31
1926;BME280;964;42.606;23.588;2023-02-14T02:52:15;95764.25;;;20.34;24.14
1926;BME280;964;42.606;23.588;2023-02-14T02:55:05;95756.63;;;20.64;23.68
1926;BME280;964;42.606;23.588;2023-02-14T02:57:35;95776.81;;;19.98;24.36
1926;BME280;964;42.606;23.588;2023-02-14T03:00:05;95791.44;;;20.07;24.03
1926;BME280;964;42.606;23.588;2023-02-14T03:02:36;95784.69;;;20.42;24.10
1926;BME280;964;42.606;23.588;2023-02-14T03:05:25;95776.22;;;20.36;24.01
1926;BME280;964;42.606;23.588;2023-02-14T03:07:53;95770.84;;;20.40;24.10
1926;BME280;964;42.606;23.588;2023-02-14T03:10:22;95787.88;;;19.79;24.81
1926;BME280;964;42.606;23.588;2023-02-14T03:13:22;95796.34;;;19.77;24.72
1926;BME280;964;42.606;23.588;2023-02-14T03:15:56;95794.56;;;20.17;24.33
1926;BME280;964;42.606;23.588;2023-02-14T03:18:38;95782.09;;;19.73;24.41
1926;BME280;964;42.606;23.588;2023-02-14T03:21:18;95781.22;;;19.55;24.71
1926;BME280;964;42.606;23.588;2023-02-14T03:23:53;95772.63;;;19.35;25.03
1926;BME280;964;42.606;23.588;2023-02-14T03:26:27;95760.91;;;19.65;24.77
1926;BME280;964;42.606;23.588;2023-02-14T03:29:06;95762.09;;;19.09;25.26
1926;BME280;964;42.606;23.588;2023-02-14T03:31:38;95759.28;;;18.91;25.88
1926;BME280;964;42.606;23.588;2023-02-14T03:34:12;95753.03;;;19.31;25.69
1926;BME280;964;42.606;23.588;2023-02-14T03:36:46;95753.03;;;20.03;25.18
1926;BME280;964;42.606;23.588;2023-02-14T03:39:20;95765.25;;;19.90;25.03
1926;BME280;964;42.606;23.588;2023-02-14T03:41:52;95760.72;;;20.08;24.74
1926;BME280;964;42.606;23.588;2023-02-14T03:44:24;95753.94;;;20.53;24.41
1926;BME280;964;42.606;23.588;2023-02-14T03:46:56;95746.88;;;20.10;24.71
1926;BME280;964;42.606;23.588;2023-02-14T03:49:28;95746.88;;;20.06;24.62
1926;BME280;964;42.606;23.588;2023-02-14T03:51:57;95743.66;;;19.07;26.30
1926;BME280;964;42.606;23.588;2023-02-14T03:54:27;95731.91;;;19.30;25.42
1926;BME280;964;42.606;23.588;2023-02-14T03:57:01;95722.63;;;19.20;25.69
1926;BME280;964;42.606;23.588;2023-02-14T03:59:31;95714.81;;;19.59;25.29
1926;BME280;964;42.606;23.588;2023-02-14T04:02:01;95712.50;;;18.96;25.71
1926;BME280;964;42.606;23.588;2023-02-14T04:04:32;95711.59;;;19.39;25.29
1926;BME280;964;42.606;23.588;2023-02-14T04:07:07;95715.78;;;19.26;25.59
1926;BME280;964;42.606;23.588;2023-02-14T04:09:36;95721.56;;;18.77;26.31
1926;BME280;964;42.606;23.588;2023-02-14T04:12:03;95719.00;;;19.53;25.61
1926;BME280;964;42.606;23.588;2023-02-14T04:14:29;95717.53;;;19.66;25.96
1926;BME280;964;42.606;23.588;2023-02-14T04:16:56;95723.66;;;19.63;25.73
1926;BME280;964;42.606;23.588;2023-02-14T04:19:40;95717.50;;;19.59;25.84
1926;BME280;964;42.606;23.588;2023-02-14T04:22:06;95721.16;;;19.30;25.20
1926;BME280;964;42.606;23.588;2023-02-14T04:24:33;95718.72;;;18.56;26.72
1926;BME280;964;42.606;23.588;2023-02-14T04:27:01;95720.84;;;18.84;26.14
1926;BME280;964;42.606;23.588;2023-02-14T04:29:37;95715.31;;;19.17;26.35
1926;BME280;964;42.606;23.588;2023-02-14T04:32:06;95714.19;;;19.22;26.19
1926;BME280;964;42.606;23.588;2023-02-14T04:34:33;95722.94;;;18.53;26.75
1926;BME280;964;42.606;23.588;2023-02-14T04:36:59;95720.75;;;20.11;25.19
1926;BME280;964;42.606;23.588;2023-02-14T04:39:26;95731.78;;;18.21;26.79
1926;BME280;964;42.606;23.588;2023-02-14T04:41:53;95714.88;;;19.04;26.74
1926;BME280;964;42.606;23.588;2023-02-14T04:44:21;95708.16;;;19.39;25.74
1926;BME280;964;42.606;23.588;2023-02-14T04:46:47;95699.63;;;19.23;25.58
1926;BME280;964;42.606;23.588;2023-02-14T04:49:14;95707.28;;;19.21;25.95
1926;BME280;964;42.606;23.588;2023-02-14T04:51:41;95695.13;;;19.41;26.05
1926;BME280;964;42.606;23.588;2023-02-14T04:54:08;95691.94;;;19.25;26.32
1926;BME280;964;42.606;23.588;2023-02-14T04:56:35;95682.69;;;18.57;27.02
1926;BME280;964;42.606;23.588;2023-02-14T04:59:02;95676.88;;;18.51;26.86
1926;BME280;964;42.606;23.588;2023-02-14T05:01:30;95680.28;;;18.04;28.13
1926;BME280;964;42.606;23.588;2023-02-14T05:03:57;95679.22;;;18.53;27.42
1926;BME280;964;42.606;23.588;2023-02-14T05:06:24;95685.25;;;18.46;27.57
1926;BME280;964;42.606;23.588;2023-02-14T05:08:50;95695.88;;;18.32;28.32
1926;BME280;964;42.606;23.588;2023-02-14T05:11:17;95695.59;;;18.44;27.46
1926;BME280;964;42.606;23.588;2023-02-14T05:13:44;95686.31;;;18.79;26.64
1926;BME280;964;42.606;23.588;2023-02-14T05:16:10;95688.00;;;19.04;26.34
1926;BME280;964;42.606;23.588;2023-02-14T05:18:39;95685.78;;;18.63;26.92
1926;BME280;964;42.606;23.588;2023-02-14T05:21:05;95686.84;;;18.51;27.15
1926;BME280;964;42.606;23.588;2023-02-14T05:23:32;95687.63;;;18.51;26.92
1926;BME280;964;42.606;23.588;2023-02-14T05:25:59;95684.25;;;18.18;28.07
1926;BME280;964;42.606;23.588;2023-02-14T05:28:25;95677.31;;;18.13;27.37
1926;BME280;964;42.606;23.588;2023-02-14T05:30:55;95682.13;;;18.41;27.87
1926;BME280;964;42.606;23.588;2023-02-14T05:36:45;95690.75;;;18.17;28.50
1926;BME280;964;42.606;23.588;2023-02-14T05:39:12;95697.84;;;17.98;28.39
1926;BME280;964;42.606;23.588;2023-02-14T05:41:39;95687.13;;;18.86;27.15
1926;BME280;964;42.606;23.588;2023-02-14T05:44:06;95688.41;;;18.52;27.83
1926;BME280;964;42.606;23.588;2023-02-14T05:46:32;95681.63;;;18.65;27.63
1926;BME280;964;42.606;23.588;2023-02-14T05:48:59;95681.88;;;18.12;28.04
1926;BME280;964;42.606;23.588;2023-02-14T05:51:27;95688.47;;;18.63;28.16
1926;BME280;964;42.606;23.588;2023-02-14T05:53:55;95686.22;;;18.68;27.90
1926;BME280;964;42.606;23.588;2023-02-14T05:56:24;95694.91;;;18.51;28.31
1926;BME280;964;42.606;23.588;2023-02-14T05:58:51;95694.41;;;18.42;28.54
1926;BME280;964;42.606;23.588;2023-02-14T06:01:17;95690.25;;;18.48;27.72
1926;BME280;964;42.606;23.588;2023-02-14T06:03:44;95682.69;;;18.17;28.16
1926;BME280;964;42.606;23.588;2023-02-14T06:06:11;95688.22;;;18.34;27.69
1926;BME280;964;42.606;23.588;2023-02-14T06:08:37;95692.69;;;19.18;27.16
1926;BME280;964;42.606;23.588;2023-02-14T06:11:05;95697.34;;;19.28;27.45
1926;BME280;964;42.606;23.588;2023-02-14T06:13:32;95697.28;;;19.18;27.62
1926;BME280;964;42.606;23.588;2023-02-14T06:15:59;95707.41;;;18.40;28.22
1926;BME280;964;42.606;23.588;2023-02-14T06:18:25;95702.84;;;18.40;28.35
1926;BME280;964;42.606;23.588;2023-02-14T06:20:53;95708.81;;;18.64;28.41
1926;BME280;964;42.606;23.588;2023-02-14T06:23:20;95698.38;;;18.55;28.36
1926;BME280;964;42.606;23.588;2023-02-14T06:25:47;95707.44;;;19.45;27.32
1926;BME280;964;42.606;23.588;2023-02-14T06:28:15;95705.56;;;18.91;27.38
1926;BME280;964;42.606;23.588;2023-02-14T06:30:42;95703.31;;;18.97;27.72
1926;BME280;964;42.606;23.588;2023-02-14T06:33:08;95698.25;;;18.88;27.62
1926;BME280;964;42.606;23.588;2023-02-14T06:35:35;95699.72;;;19.40;27.25
1926;BME280;964;42.606;23.588;2023-02-14T06:38:02;95689.19;;;19.97;26.34
1926;BME280;964;42.606;23.588;2023-02-14T06:40:30;95695.31;;;21.60;24.76
1926;BME280;964;42.606;23.588;2023-02-14T06:42:56;95693.88;;;21.17;25.16
1926;BME280;964;42.606;23.588;2023-02-14T06:45:24;95697.66;;;21.44;24.83
1926;BME280;964;42.606;23.588;2023-02-14T06:47:51;95697.72;;;21.23;24.88
1926;BME280;964;42.606;23.588;2023-02-14T06:50:18;95682.75;;;22.05;24.07
1926;BME280;964;42.606;23.588;2023-02-14T06:52:44;95687.69;;;21.27;24.87
1926;BME280;964;42.606;23.588;2023-02-14T06:55:11;95691.59;;;20.94;25.50
1926;BME280;964;42.606;23.588;2023-02-14T06:57:38;95692.94;;;21.69;24.95
1926;BME280;964;42.606;23.588;2023-02-14T07:00:06;95694.97;;;21.40;25.28
1926;BME280;964;42.606;23.588;2023-02-14T07:02:35;95692.34;;;21.09;25.33
1926;BME280;964;42.606;23.588;2023-02-14T07:05:02;95683.75;;;21.56;24.51
1926;BME280;964;42.606;23.588;2023-02-14T07:07:29;95678.13;;;20.62;25.50
1926;BME280;964;42.606;23.588;2023-02-14T07:09:55;95661.97;;;20.76;26.11
1926;BME280;964;42.606;23.588;2023-02-14T07:12:22;95667.72;;;20.85;26.05
1926;BME280;964;42.606;23.588;2023-02-14T07:14:49;95675.34;;;21.36;25.37
1926;BME280;964;42.606;23.588;2023-02-14T07:17:15;95669.63;;;20.95;25.90
1926;BME280;964;42.606;23.588;2023-02-14T07:19:43;95672.31;;;20.95;25.80
1926;BME280;964;42.606;23.588;2023-02-14T07:22:10;95682.31;;;20.14;27.11
1926;BME280;964;42.606;23.588;2023-02-14T07:24:37;95677.53;;;19.61;27.95
1926;BME280;964;42.606;23.588;2023-02-14T07:27:03;95677.63;;;19.93;27.50
1926;BME280;964;42.606;23.588;2023-02-14T07:29:30;95676.13;;;19.95;27.78
1926;BME280;964;42.606;23.588;2023-02-14T07:31:57;95688.47;;;20.11;27.63
1926;BME280;964;42.606;23.588;2023-02-14T07:34:23;95690.03;;;18.64;29.64
1926;BME280;964;42.606;23.588;2023-02-14T07:36:52;95690.75;;;18.57;29.30
1926;BME280;964;42.606;23.588;2023-02-14T07:39:19;95681.97;;;19.22;28.54
1926;BME280;964;42.606;23.588;2023-02-14T07:41:46;95680.69;;;19.74;28.15
1926;BME280;964;42.606;23.588;2023-02-14T07:44:13;95686.44;;;19.79;28.33
1926;BME280;964;42.606;23.588;2023-02-14T07:46:39;95686.81;;;19.67;28.13
1926;BME280;964;42.606;23.588;2023-02-14T07:49:06;95690.66;;;18.50;29.63
1926;BME280;964;42.606;23.588;2023-02-14T07:51:33;95687.84;;;19.41;29.01
1926;BME280;964;42.606;23.588;2023-02-14T07:54:01;95699.84;;;19.62;28.26
1926;BME280;964;42.606;23.588;2023-02-14T07:56:27;95702.94;;;19.67;28.54
1926;BME280;964;42.606;23.588;2023-02-14T07:58:54;95699.22;;;20.03;28.53
1926;BME280;964;42.606;23.588;2023-02-14T08:01:21;95690.06;;;20.58;27.65
1926;BME280;964;42.606;23.588;2023-02-14T08:03:48;95694.94;;;19.88;28.25
1926;BME280;964;42.606;23.588;2023-02-14T08:06:15;95694.59;;;20.11;28.73
1926;BME280;964;42.606;23.588;2023-02-14T08:08:43;95706.31;;;19.50;29.35
1926;BME280;964;42.606;23.588;2023-02-14T08:11:12;95696.00;;;19.59;28.88
1926;BME280;964;42.606;23.588;2023-02-14T08:13:59;95695.28;;;19.76;29.29
1926;BME280;964;42.606;23.588;2023-02-14T08:16:26;95700.38;;;19.20;29.75
1926;BME280;964;42.606;23.588;2023-02-14T08:18:53;95706.00;;;19.69;29.71
1926;BME280;964;42.606;23.588;2023-02-14T08:21:19;95702.31;;;20.23;28.86
1926;BME280;964;42.606;23.588;2023-02-14T08:23:46;95707.59;;;19.84;29.13
1926;BME280;964;42.606;23.588;2023-02-14T08:26:14;95707.59;;;19.77;29.09
1926;BME280;964;42.606;23.588;2023-02-14T08:28:41;95721.25;;;19.44;29.51
1926;BME280;964;42.606;23.588;2023-02-14T08:31:09;95711.44;;;19.07;29.87
1926;BME280;964;42.606;23.588;2023-02-14T08:33:36;95703.28;;;19.58;29.29
1926;BME280;964;42.606;23.588;2023-02-14T08:36:03;95705.41;;;19.32;29.90
1926;BME280;964;42.606;23.588;2023-02-14T08:38:30;95692.47;;;19.48;30.06
1926;BME280;964;42.606;23.588;2023-02-14T08:40:59;95705.97;;;19.62;30.17
1926;BME280;964;42.606;23.588;2023-02-14T08:43:28;95702.75;;;20.32;28.68
1926;BME280;964;42.606;23.588;2023-02-14T08:45:54;95712.59;;;19.89;29.23
1926;BME280;964;42.606;23.588;2023-02-14T08:48:21;95710.06;;;20.74;28.57
1926;BME280;964;42.606;23.588;2023-02-14T08:50:49;95706.09;;;19.94;29.31
1926;BME280;964;42.606;23.588;2023-02-14T08:53:16;95707.19;;;19.82;29.45
1926;BME280;964;42.606;23.588;2023-02-14T08:55:42;95699.94;;;20.00;29.28
1926;BME280;964;42.606;23.588;2023-02-14T08:58:09;95700.06;;;20.29;28.37
1926;BME280;964;42.606;23.588;2023-02-14T09:00:38;95694.44;;;19.58;29.02
1926;BME280;964;42.606;23.588;2023-02-14T09:03:04;95699.53;;;19.84;28.90
1926;BME280;964;42.606;23.588;2023-02-14T09:05:31;95707.66;;;20.05;28.93
1926;BME280;964;42.606;23.588;2023-02-14T09:07:58;95697.63;;;19.85;29.03
1926;BME280;964;42.606;23.588;2023-02-14T09:10:27;95702.28;;;20.05;28.84
1926;BME280;964;42.606;23.588;2023-02-14T09:12:53;95702.50;;;19.58;29.17
1926;BME280;964;42.606;23.588;2023-02-14T09:15:20;95696.97;;;20.41;28.69
1926;BME280;964;42.606;23.588;2023-02-14T09:17:48;95688.47;;;20.25;29.00
1926;BME280;964;42.606;23.588;2023-02-14T09:20:15;95694.28;;;19.30;30.13
1926;BME280;964;42.606;23.588;2023-02-14T09:22:42;95677.34;;;20.30;29.01
1926;BME280;964;42.606;23.588;2023-02-14T09:25:08;95674.94;;;19.86;29.35
1926;BME280;964;42.606;23.588;2023-02-14T09:27:35;95683.78;;;19.86;29.36
1926;BME280;964;42.606;23.588;2023-02-14T09:30:03;95691.97;;;19.32;30.55
1926;BME280;964;42.606;23.588;2023-02-14T09:32:30;95673.03;;;20.00;29.15
1926;BME280;964;42.606;23.588;2023-02-14T09:34:58;95673.84;;;20.12;28.95
1926;BME280;964;42.606;23.588;2023-02-14T09:37:25;95665.31;;;19.74;29.33
1926;BME280;964;42.606;23.588;2023-02-14T09:39:52;95678.47;;;20.18;29.52
1926;BME280;964;42.606;23.588;2023-02-14T09:42:35;95676.81;;;19.78;29.73
1926;BME280;964;42.606;23.588;2023-02-14T09:45:07;95678.81;;;19.95;29.39
1926;BME280;964;42.606;23.588;2023-02-14T09:47:40;95674.66;;;20.83;28.51
1926;BME280;964;42.606;23.588;2023-02-14T09:50:16;95671.28;;;19.36;29.32
1926;BME280;964;42.606;23.588;2023-02-14T09:52:45;95679.72;;;19.34;30.27
1926;BME280;964;42.606;23.588;2023-02-14T09:55:14;95667.25;;;19.84;29.23
1926;BME280;964;42.606;23.588;2023-02-14T09:57:46;95666.84;;;19.86;29.40
1926;BME280;964;42.606;23.588;2023-02-14T10:00:22;95656.22;;;20.64;28.54
1926;BME280;964;42.606;23.588;2023-02-14T10:03:11;95657.56;;;19.55;29.53
1926;BME280;964;42.606;23.588;2023-02-14T10:05:47;95659.28;;;20.62;28.11
1926;BME280;964;42.606;23.588;2023-02-14T10:08:29;95666.22;;;20.35;28.81
1926;BME280;964;42.606;23.588;2023-02-14T10:11:03;95666.13;;;19.92;28.89
1926;BME280;964;42.606;23.588;2023-02-14T10:13:37;95658.91;;;20.60;28.44
1926;BME280;964;42.606;23.588;2023-02-14T10:16:10;95658.47;;;20.08;29.14
1926;BME280;964;42.606;23.588;2023-02-14T10:18:44;95657.56;;;19.51;29.74
1926;BME280;964;42.606;23.588;2023-02-14T10:21:18;95653.53;;;20.53;28.36
1926;BME280;964;42.606;23.588;2023-02-14T10:23:50;95649.16;;;19.71;29.22
1926;BME280;964;42.606;23.588;2023-02-14T10:26:24;95636.22;;;20.54;28.72
1926;BME280;964;42.606;23.588;2023-02-14T10:28:54;95655.44;;;20.45;28.31
1926;BME280;964;42.606;23.588;2023-02-14T10:31:22;95655.28;;;19.71;29.29
1926;BME280;964;42.606;23.588;2023-02-14T10:33:53;95656.84;;;19.72;29.38
1926;BME280;964;42.606;23.588;2023-02-14T10:36:31;95653.81;;;19.91;29.53
1926;BME280;964;42.606;23.588;2023-02-14T10:39:09;95656.06;;;19.68;29.26
1926;BME280;964;42.606;23.588;2023-02-14T10:41:43;95642.75;;;20.46;28.72
1926;BME280;964;42.606;23.588;2023-02-14T10:44:29;95643.06;;;19.91;29.16
1926;BME280;964;42.606;23.588;2023-02-14T10:47:07;95646.59;;;20.31;29.04
1926;BME280;964;42.606;23.588;2023-02-14T10:49:40;95640.78;;;20.11;28.98
1926;BME280;964;42.606;23.588;2023-02-14T10:52:17;95636.91;;;19.91;29.04
1926;BME280;964;42.606;23.588;2023-02-14T10:54:52;95637.75;;;20.48;28.79
1926;BME280;964;42.606;23.588;2023-02-14T10:57:25;95638.44;;;19.78;29.22
1926;BME280;964;42.606;23.588;2023-02-14T10:59:56;95643.84;;;20.10;29.11
1926;BME280;964;42.606;23.588;2023-02-14T11:02:30;95641.69;;;19.32;29.89
1926;BME280;964;42.606;23.588;2023-02-14T11:04:59;95636.84;;;19.59;29.70
1926;BME280;964;42.606;23.588;2023-02-14T11:07:27;95643.25;;;19.37;30.01
1926;BME280;964;42.606;23.588;2023-02-14T11:09:54;95636.03;;;19.44;29.44
1926;BME280;964;42.606;23.588;2023-02-14T11:12:32;95631.56;;;20.23;28.65
1926;BME280;964;42.606;23.588;2023-02-14T11:15:20;95640.56;;;19.37;29.72
1926;BME280;964;42.606;23.588;2023-02-14T11:17:48;95631.97;;;19.06;30.48
1926;BME280;964;42.606;23.588;2023-02-14T11:20:25;95619.06;;;19.37;29.97
1926;BME280;964;42.606;23.588;2023-02-14T11:22:56;95627.72;;;20.06;29.40
1926;BME280;964;42.606;23.588;2023-02-14T11:25:25;95623.72;;;19.43;29.54
1926;BME280;964;42.606;23.588;2023-02-14T11:27:57;95618.63;;;19.28;30.24
1926;BME280;964;42.606;23.588;2023-02-14T11:30:27;95616.50;;;19.65;29.26
1926;BME280;964;42.606;23.588;2023-02-14T11:32:55;95621.09;;;19.68;29.41
1926;BME280;964;42.606;23.588;2023-02-14T11:35:24;95615.03;;;20.14;28.79
1926;BME280;964;42.606;23.588;2023-02-14T11:38:00;95611.91;;;19.80;29.03
1926;BME280;964;42.606;23.588;2023-02-14T11:40:29;95613.03;;;19.72;29.41
1926;BME280;964;42.606;23.588;2023-02-14T11:42:59;95613.03;;;19.61;29.46
1926;BME280;964;42.606;23.588;2023-02-14T11:45:30;95605.75;;;19.72;28.97
1926;BME280;964;42.606;23.588;2023-02-14T11:48:13;95613.13;;;20.25;28.31
1926;BME280;964;42.606;23.588;2023-02-14T11:50:43;95606.94;;;20.77;27.67
1926;BME280;964;42.606;23.588;2023-02-14T11:53:24;95598.13;;;20.41;27.94
1926;BME280;964;42.606;23.588;2023-02-14T11:56:05;95597.34;;;20.20;28.15
1926;BME280;964;42.606;23.588;2023-02-14T11:59:09;95583.09;;;20.79;27.77
1926;BME280;964;42.606;23.588;2023-02-14T12:01:36;95587.75;;;20.61;27.66
1926;BME280;964;42.606;23.588;2023-02-14T12:04:05;95575.06;;;20.37;27.69
1926;BME280;964;42.606;23.588;2023-02-14T12:06:34;95578.50;;;20.13;28.06
1926;BME280;964;42.606;23.588;2023-02-14T12:12:26;95576.59;;;20.24;27.34
1926;BME280;964;42.606;23.588;2023-02-14T12:15:11;95580.84;;;20.32;27.36
1926;BME280;964;42.606;23.588;2023-02-14T12:17:47;95572.72;;;20.67;27.19
1926;BME280;964;42.606;23.588;2023-02-14T12:20:18;95576.97;;;20.54;27.17
1926;BME280;964;42.606;23.588;2023-02-14T12:22:53;95574.53;;;20.98;26.94
1926;BME280;964;42.606;23.588;2023-02-14T12:25:24;95560.66;;;21.11;26.70
1926;BME280;964;42.606;23.588;2023-02-14T12:27:56;95556.22;;;20.30;27.07
1926;BME280;964;42.606;23.588;2023-02-14T12:30:28;95562.22;;;19.35;28.06
1926;BME280;964;42.606;23.588;2023-02-14T12:32:56;95544.22;;;20.66;27.23
1926;BME280;964;42.606;23.588;2023-02-14T12:35:35;95539.13;;;20.96;26.46
1926;BME280;964;42.606;23.588;2023-02-14T12:38:10;95535.59;;;21.21;26.38
1926;BME280;964;42.606;23.588;2023-02-14T12:40:52;95522.75;;;24.47;23.46
1926;BME280;964;42.606;23.588;2023-02-14T12:43:42;95523.88;;;24.69;22.90
1926;BME280;964;42.606;23.588;2023-02-14T12:46:20;95527.19;;;25.20;22.32
1926;BME280;964;42.606;23.588;2023-02-14T12:49:07;95533.31;;;25.40;22.26
1926;BME280;964;42.606;23.588;2023-02-14T12:51:44;95523.56;;;25.07;22.76
1926;BME280;964;42.606;23.588;2023-02-14T12:54:34;95523.72;;;24.57;23.13
1926;BME280;964;42.606;23.588;2023-02-14T12:57:15;95513.59;;;26.08;21.99
1926;BME280;964;42.606;23.588;2023-02-14T12:59:52;95519.81;;;25.01;22.51
1926;BME280;964;42.606;23.588;2023-02-14T13:03:12;95528.66;;;22.74;24.05
1926;BME280;964;42.606;23.588;2023-02-14T13:05:53;95527.72;;;22.10;24.93
1926;BME280;964;42.606;23.588;2023-02-14T13:08:35;95524.44;;;21.81;25.71
1926;BME280;964;42.606;23.588;2023-02-14T13:11:12;95520.53;;;21.92;25.85
1926;BME280;964;42.606;23.588;2023-02-14T13:13:50;95520.97;;;21.80;25.36
1926;BME280;964;42.606;23.588;2023-02-14T13:16:24;95518.69;;;21.75;25.76
1926;BME280;964;42.606;23.588;2023-02-14T13:18:58;95527.38;;;21.49;26.40
1926;BME280;964;42.606;23.588;2023-02-14T13:21:30;95532.59;;;21.74;25.93
1926;BME280;964;42.606;23.588;2023-02-14T13:24:09;95515.25;;;21.06;26.72
1926;BME280;964;42.606;23.588;2023-02-14T13:26:39;95514.41;;;21.23;26.32
1926;BME280;964;42.606;23.588;2023-02-14T13:29:13;95505.38;;;22.06;26.02
1926;BME280;964;42.606;23.588;2023-02-14T13:31:41;95508.50;;;22.00;25.72
1926;BME280;964;42.606;23.588;2023-02-14T13:34:18;95514.44;;;21.16;26.49
1926;BME280;964;42.606;23.588;2023-02-14T13:36:48;95516.72;;;21.21;26.51
1926;BME280;964;42.606;23.588;2023-02-14T13:39:26;95520.63;;;21.06;26.64
1926;BME280;964;42.606;23.588;2023-02-14T13:41:55;95520.75;;;20.70;26.78
1926;BME280;964;42.606;23.588;2023-02-14T13:44:43;95506.59;;;22.42;25.72
1926;BME280;964;42.606;23.588;2023-02-14T13:47:16;95507.22;;;21.64;26.42
1926;BME280;964;42.606;23.588;2023-02-14T13:49:49;95517.84;;;22.33;26.15
1926;BME280;964;42.606;23.588;2023-02-14T13:52:39;95526.81;;;22.23;26.20
1926;BME280;964;42.606;23.588;2023-02-14T13:55:08;95531.41;;;21.13;27.19